CheckWX is a tool to help pilots better visualize weather data.  It is not intended as a substitute for an official pre-flight weather briefing.

07:06:36 UTC

EGUL TAF
RAF Lakenheath Airport
Lakenheath, United Kingdom
TAF EGUL 310600Z 3106/0112 04012KT 9999 SCT040 QNH3040INS BECMG 3122/3123 02005KT 5000 BR FEW030 QNH3023INS BECMG 0107/0108 27009KT 9999 NSW BKN020 620203 QNH3019INS TX11/3114Z TN01/0106Z

Mar-31@
06:00 UTC

Mar-31 @ 06:00 UTC

Mar-31@
22:00 UTC

Mar-31 @ 22:00 UTC

TAF EGUL 310600Z 3106/0112 04012KT 9999 SCT040 QNH3040INS
Wind
  • 040° at 12 KTS
Cloud Levels
  • Scattered at 4,000' AGL

Mar-31@
22:00 UTC

Mar-31 @ 22:00 UTC

Apr-1@
07:00 UTC

Apr-1 @ 07:00 UTC

BECMG 3122/3123 02005KT 5000 BR FEW030 QNH3023INS

Becoming

Becoming Conditions expected by Tue, Mar 31, 2020 @ 23:00 UTC

Wind
  • 020° at 5 KTS
Conditions
Mist
Cloud Levels
  • Few at 3,000' AGL

Apr-1@
07:00 UTC

Apr-1 @ 07:00 UTC

Apr-1@
12:00 UTC

Apr-1 @ 12:00 UTC

BECMG 0107/0108 27009KT 9999 NSW BKN020 620203 QNH3019INS TX11/3114Z TN01/0106Z

Becoming

Becoming Conditions expected by Wed, Apr 1, 2020 @ 08:00 UTC

Wind
  • 270° at 9 KTS
Conditions
No significant weather
Cloud Levels
  • Broken at 2,000' AGL